Terminal Aerodrome Forecast
Issued by NWS

Home | Current Version | Previous Version | Text Only | Print | Product List | Glossary On
Versions: 1 2 3 4 5 6 7 8 9 10 11 12 13 14 15 16 17 18
000
FTUS46 KPDT 242327
TAFALW
TAF
KALW 242327Z 2500/2524 VRB06KT P6SM SCT100 SCT250
     FM250300 17009KT P6SM SCT060 SCT200
     FM251500 22010KT P6SM BKN200
     FM252200 24007KT P6SM SKC=

USA.gov is the U.S. government's official web portal to all federal, state and local government web resources and services.